Time;durP1;ratioP1;P1;durP2;ratioP2;P2;SDS_P1;SDS_P2;PMS_P1;PMS_P2;Temp;Humidity;BMP_temperature;BMP_pressure;BME280_temperature;BME280_humidity;BME280_pressure;Samples;Min_cycle;Max_cycle;Signal;HPM_P1;HPM_P2
2022/03/25 00:01:11;;;;;;;33.33;18.97;;;;;;;11.32;40.16;99796.47;4138629;28;20935;-65
2022/03/25 00:03:13;;;;;;;31.97;18.93;;;;;;;11.32;40.52;99780.50;4138667;28;20230;-65
2022/03/25 00:05:15;;;;;;;27.17;18.23;;;;;;;11.32;40.58;99792.97;4132758;28;20337;-65
2022/03/25 00:07:17;;;;;;;26.57;17.77;;;;;;;13.06;37.80;99773.16;4146796;28;20294;-67
2022/03/25 00:09:18;;;;;;;27.03;17.93;;;;;;;13.53;36.75;99790.91;4150066;28;20237;-65
2022/03/25 00:11:20;;;;;;;29.67;17.83;;;;;;;13.18;37.17;99823.31;4155274;28;20248;-65
2022/03/25 00:13:22;;;;;;;28.00;17.23;;;;;;;11.81;39.52;99794.88;4155993;28;20240;-65
2022/03/25 00:15:24;;;;;;;29.03;18.73;;;;;;;13.00;37.68;99796.03;4156934;28;20334;-67
2022/03/25 00:17:26;;;;;;;30.00;17.50;;;;;;;13.36;37.05;99792.84;4156459;28;20656;-64
2022/03/25 00:19:28;;;;;;;29.70;18.27;;;;;;;11.17;40.00;99814.06;4160481;28;20228;-67
2022/03/25 00:21:29;;;;;;;26.47;18.33;;;;;;;12.66;38.19;99794.47;4158541;28;20929;-66
2022/03/25 00:23:31;;;;;;;29.10;18.17;;;;;;;11.84;38.18;99856.69;4149499;28;20259;-66
2022/03/25 00:25:34;;;;;;;25.33;18.53;;;;;;;12.16;38.85;99796.41;4160419;28;20229;-66
2022/03/25 00:27:36;;;;;;;24.60;18.17;;;;;;;12.89;37.72;99799.09;4156059;28;20235;-66
2022/03/25 00:29:37;;;;;;;27.70;18.90;;;;;;;12.30;38.34;99802.88;4158276;28;20240;-66
2022/03/25 00:31:39;;;;;;;30.73;19.53;;;;;;;13.16;37.33;99798.66;4141406;28;20968;-66
2022/03/25 00:33:43;;;;;;;32.53;20.23;;;;;;;13.28;36.89;99803.56;4149570;28;20236;-66
2022/03/25 00:35:45;;;;;;;27.50;16.97;;;;;;;13.20;36.86;99805.28;4143159;28;20236;-66
2022/03/25 00:37:47;;;;;;;30.33;19.03;;;;;;;13.08;36.72;99801.34;4155884;28;20237;-66
2022/03/25 00:39:49;;;;;;;35.33;20.03;;;;;;;11.67;39.01;99821.16;4151977;28;20245;-66
2022/03/25 00:41:51;;;;;;;29.23;18.73;;;;;;;12.89;37.32;99793.75;4151969;28;20244;-66
2022/03/25 00:43:53;;;;;;;29.67;19.67;;;;;;;12.92;36.99;99804.09;4155518;28;20298;-66
2022/03/25 00:45:55;;;;;;;31.00;19.20;;;;;;;12.77;37.33;99809.25;4159605;28;20229;-65
2022/03/25 00:47:56;;;;;;;31.77;20.40;;;;;;;13.01;37.00;99809.22;4150539;28;20241;-66
2022/03/25 00:49:58;;;;;;;31.13;19.90;;;;;;;12.77;37.05;99818.09;4159054;28;20615;-66
2022/03/25 00:52:00;;;;;;;33.17;18.63;;;;;;;13.07;37.06;99802.34;4156411;28;20279;-66
2022/03/25 00:54:03;;;;;;;29.63;19.37;;;;;;;13.02;36.78;99810.03;4159363;28;20236;-65
2022/03/25 00:56:05;;;;;;;35.27;20.50;;;;;;;12.70;37.40;99797.63;4146995;28;20713;-65
2022/03/25 00:58:08;;;;;;;28.20;18.60;;;;;;;12.67;37.41;99796.13;4156019;28;20324;-66
2022/03/25 01:00:10;;;;;;;31.83;20.87;;;;;;;12.58;37.46;99807.84;4159370;28;20258;-66
2022/03/25 01:02:12;;;;;;;32.83;21.87;;;;;;;12.74;37.23;99806.94;4155015;28;20237;-66
2022/03/25 01:04:14;;;;;;;36.27;22.90;;;;;;;13.12;36.80;99801.81;4158660;28;20235;-66
2022/03/25 01:06:18;;;;;;;31.30;20.87;;;;;;;12.95;37.00;99806.41;4146838;28;20658;-66
2022/03/25 01:08:19;;;;;;;32.57;19.53;;;;;;;12.76;37.21;99792.44;4154955;28;20236;-66
2022/03/25 01:10:23;;;;;;;28.80;19.07;;;;;;;12.93;37.01;99800.41;4159658;28;20268;-66
2022/03/25 01:12:25;;;;;;;34.63;21.77;;;;;;;12.73;37.09;99806.13;4155475;28;20236;-65
2022/03/25 01:14:27;;;;;;;33.27;20.30;;;;;;;12.98;36.94;99801.56;4151021;28;20870;-66
2022/03/25 01:16:29;;;;;;;30.63;19.97;;;;;;;13.02;36.71;99797.50;4152291;28;20221;-66
2022/03/25 01:18:30;;;;;;;29.97;19.87;;;;;;;12.66;37.21;99792.63;4156120;28;20224;-66
2022/03/25 01:20:32;;;;;;;33.27;20.50;;;;;;;12.69;37.32;99798.63;4148942;28;20232;-66
2022/03/25 01:22:34;;;;;;;38.47;20.63;;;;;;;12.66;37.26;99800.63;4144827;28;20596;-66
2022/03/25 01:24:36;;;;;;;32.13;20.63;;;;;;;12.86;37.05;99794.91;4150246;28;20228;-66
2022/03/25 01:26:39;;;;;;;28.10;19.33;;;;;;;12.53;37.80;99786.16;4158455;28;20233;-66
2022/03/25 01:28:41;;;;;;;32.93;21.23;;;;;;;12.56;37.51;99804.50;4152572;28;20655;-66
2022/03/25 01:30:46;;;;;;;30.27;20.03;;;;;;;11.80;38.76;99798.56;4159450;28;20236;-66
2022/03/25 01:32:49;;;;;;;32.17;21.27;;;;;;;12.71;37.46;99796.59;4152645;28;20240;-66
2022/03/25 01:34:51;;;;;;;38.00;23.27;;;;;;;12.76;37.47;99788.94;4148059;28;20707;-66
2022/03/25 01:36:53;;;;;;;36.67;21.77;;;;;;;12.84;37.39;99802.22;4153542;28;20237;-66
2022/03/25 01:38:55;;;;;;;32.23;21.37;;;;;;;12.79;37.04;99800.09;4145901;28;20328;-66
2022/03/25 01:40:56;;;;;;;31.80;20.63;;;;;;;12.90;37.45;99796.25;4142298;28;20237;-66
2022/03/25 01:42:58;;;;;;;35.07;22.17;;;;;;;12.84;37.65;99803.09;4150292;28;20331;-67
2022/03/25 01:45:01;;;;;;;37.40;23.03;;;;;;;12.66;37.73;99816.63;4158282;28;20294;-67
2022/03/25 01:47:08;;;;;;;32.43;21.50;;;;;;;12.61;38.10;99794.97;4150828;28;20241;-66
2022/03/25 01:49:09;;;;;;;31.60;21.70;;;;;;;12.38;38.94;99794.03;4158502;28;20549;-66
2022/03/25 01:51:15;;;;;;;36.00;21.73;;;;;;;11.97;39.17;99794.91;4159033;28;20244;-67
2022/03/25 01:53:19;;;;;;;32.13;20.67;;;;;;;10.84;41.83;99807.78;4154492;28;20286;-67
2022/03/25 01:55:26;;;;;;;31.03;20.93;;;;;;;9.69;44.51;99803.31;4148267;28;20656;-67
2022/03/25 01:57:28;;;;;;;31.40;21.37;;;;;;;9.22;45.47;99781.44;4154418;28;20428;-67
2022/03/25 01:59:30;;;;;;;35.23;21.47;;;;;;;10.00;44.04;99767.53;4142436;28;20589;-67
2022/03/25 02:01:32;;;;;;;31.23;21.40;;;;;;;10.13;43.34;99757.34;4141849;28;20236;-66
2022/03/25 02:03:35;;;;;;;32.27;20.27;;;;;;;11.16;41.11;99749.34;4141929;28;20244;-67
2022/03/25 02:05:36;;;;;;;34.57;21.17;;;;;;;10.56;41.91;99776.84;4128320;28;20283;-67
2022/03/25 02:07:38;;;;;;;36.37;21.57;;;;;;;10.74;41.86;99755.50;4138426;28;20245;-67
2022/03/25 02:09:40;;;;;;;33.73;21.77;;;;;;;11.88;39.22;99764.78;4140779;28;20697;-67
2022/03/25 02:11:42;;;;;;;34.37;21.97;;;;;;;12.40;38.41;99760.84;4140923;28;20279;-66
2022/03/25 02:13:44;;;;;;;32.60;21.33;;;;;;;12.17;39.00;99759.91;4132904;28;20238;-67
2022/03/25 02:15:49;;;;;;;32.37;21.47;;;;;;;12.61;38.16;99762.16;4134215;28;20268;-67
2022/03/25 02:17:51;;;;;;;33.73;22.53;;;;;;;12.60;38.25;99771.13;4134229;28;20245;-66
2022/03/25 02:19:52;;;;;;;40.30;21.17;;;;;;;12.43;38.62;99781.84;4140792;28;20291;-67
2022/03/25 02:21:54;;;;;;;29.70;20.40;;;;;;;12.25;38.87;99786.53;4138579;28;20273;-67
2022/03/25 02:23:55;;;;;;;33.80;22.37;;;;;;;12.39;38.99;99774.38;4140028;28;20673;-67
2022/03/25 02:25:57;;;;;;;32.93;21.27;;;;;;;12.27;39.26;99780.06;4141904;28;20259;-66
2022/03/25 02:28:01;;;;;;;31.97;20.60;;;;;;;12.06;39.72;99783.25;4137540;28;20248;-66
2022/03/25 02:30:07;;;;;;;31.87;18.80;;;;;;;12.24;39.81;99774.25;4126265;28;20257;-67
2022/03/25 02:32:10;;;;;;;30.93;20.83;;;;;;;12.12;39.91;99779.09;4132763;28;20288;-66
2022/03/25 02:34:13;;;;;;;29.07;18.57;;;;;;;12.20;39.78;99780.88;4141190;28;20233;-66
2022/03/25 02:36:15;;;;;;;31.33;19.57;;;;;;;12.26;39.82;99773.06;4128386;28;20324;-66
2022/03/25 02:38:22;;;;;;;28.47;19.53;;;;;;;12.22;39.97;99769.06;4137825;28;20260;-66
2022/03/25 02:40:24;;;;;;;30.93;20.57;;;;;;;12.11;40.13;99770.25;4141860;28;20809;-67
2022/03/25 02:42:25;;;;;;;31.53;20.47;;;;;;;11.86;40.34;99779.25;4137196;28;20268;-66
2022/03/25 02:44:27;;;;;;;33.97;20.20;;;;;;;12.01;40.29;99774.09;4133938;28;20253;-67
2022/03/25 02:46:29;;;;;;;29.73;20.20;;;;;;;12.03;40.24;99782.75;4138533;28;20261;-67
2022/03/25 02:48:32;;;;;;;29.37;19.33;;;;;;;12.07;40.14;99779.59;4132231;28;20229;-67
2022/03/25 02:50:34;;;;;;;30.47;21.20;;;;;;;11.96;40.60;99765.78;4141625;28;20271;-65
2022/03/25 02:52:36;;;;;;;31.13;21.30;;;;;;;11.76;41.03;99771.38;4137592;28;20260;-66
2022/03/25 02:54:38;;;;;;;31.40;20.17;;;;;;;11.92;40.66;99775.94;4138062;28;20242;-66
2022/03/25 02:56:39;;;;;;;36.23;22.07;;;;;;;11.86;40.74;99776.59;4137373;28;20256;-66
2022/03/25 02:58:41;;;;;;;35.90;20.23;;;;;;;11.81;40.92;99776.22;4138783;28;20309;-66
2022/03/25 03:00:43;;;;;;;33.40;21.10;;;;;;;11.77;40.94;99774.91;4141852;28;20244;-66
2022/03/25 03:02:45;;;;;;;34.03;21.80;;;;;;;11.91;40.57;99779.59;4136936;28;20237;-66
2022/03/25 03:04:49;;;;;;;30.63;21.20;;;;;;;11.01;42.58;99761.63;4132176;28;20787;-66
2022/03/25 03:06:51;;;;;;;36.60;22.43;;;;;;;11.48;41.40;99761.06;4136038;28;20260;-66
2022/03/25 03:08:53;;;;;;;37.67;21.73;;;;;;;10.74;42.49;99778.63;4139753;28;20691;-67
2022/03/25 03:10:54;;;;;;;38.07;22.93;;;;;;;11.23;41.96;99759.38;4141761;28;20703;-67
2022/03/25 03:12:56;;;;;;;34.80;22.83;;;;;;;11.21;42.13;99746.22;4137070;28;20263;-67
2022/03/25 03:15:01;;;;;;;35.10;22.97;;;;;;;11.77;41.29;99758.94;4141204;28;20693;-67
2022/03/25 03:17:04;;;;;;;38.77;23.83;;;;;;;11.86;40.71;99763.28;4137480;28;20234;-67
2022/03/25 03:19:06;;;;;;;36.03;23.63;;;;;;;11.72;41.18;99754.91;4126268;28;20236;-66
2022/03/25 03:21:07;;;;;;;37.33;23.83;;;;;;;11.63;41.18;99776.38;4141469;28;20335;-66
2022/03/25 03:23:09;;;;;;;36.60;24.60;;;;;;;11.92;40.66;99766.09;4127387;28;20241;-67
2022/03/25 03:25:11;;;;;;;35.27;23.63;;;;;;;11.94;40.58;99755.28;4140073;28;20260;-66
2022/03/25 03:27:13;;;;;;;43.63;23.60;;;;;;;11.47;41.61;99769.22;4126258;28;20344;-66
2022/03/25 03:29:15;;;;;;;41.90;24.50;;;;;;;11.55;41.34;99770.06;4151387;28;20265;-66
2022/03/25 03:31:16;;;;;;;38.50;23.67;;;;;;;11.10;41.71;99786.44;4131886;28;20257;-66
2022/03/25 03:33:18;;;;;;;32.93;21.17;;;;;;;11.36;41.47;99762.38;4139150;28;20693;-67
2022/03/25 03:35:20;;;;;;;36.37;22.63;;;;;;;11.43;41.01;99790.00;4125655;28;20262;-67
2022/03/25 03:37:22;;;;;;;34.80;22.10;;;;;;;11.62;41.25;99758.75;4137999;28;20705;-67
2022/03/25 03:39:24;;;;;;;33.13;21.93;;;;;;;10.12;44.43;99749.53;4140319;28;20236;-66
2022/03/25 03:41:27;;;;;;;33.13;22.70;;;;;;;10.65;43.30;99739.66;4141553;28;20917;-67
2022/03/25 03:43:29;;;;;;;38.07;23.43;;;;;;;10.87;42.63;99736.47;4129484;28;20348;-66
2022/03/25 03:45:32;;;;;;;32.67;22.37;;;;;;;11.52;41.30;99740.25;4136575;28;20769;-66
2022/03/25 03:47:38;;;;;;;36.93;22.87;;;;;;;11.74;40.85;99750.25;4139841;28;20630;-66
2022/03/25 03:49:40;;;;;;;35.27;23.07;;;;;;;11.40;41.35;99761.06;4144715;28;20533;-67
2022/03/25 03:51:42;;;;;;;37.50;23.53;;;;;;;11.15;41.76;99762.81;4140785;28;20240;-66
2022/03/25 03:53:43;;;;;;;33.33;21.33;;;;;;;10.83;42.12;99764.38;4142536;28;20272;-67
2022/03/25 03:55:45;;;;;;;34.93;22.20;;;;;;;11.17;41.82;99744.84;4138008;28;20764;-67
2022/03/25 03:57:46;;;;;;;31.07;20.57;;;;;;;10.98;41.53;99756.63;4140336;28;20249;-66
2022/03/25 03:59:48;;;;;;;33.23;21.90;;;;;;;11.06;41.51;99755.84;4144379;28;20260;-66
2022/03/25 04:01:50;;;;;;;35.90;22.47;;;;;;;11.10;41.55;99763.31;4134413;28;20269;-66
2022/03/25 04:03:52;;;;;;;33.03;21.30;;;;;;;10.97;41.48;99758.47;4141053;28;20725;-66
2022/03/25 04:05:53;;;;;;;38.30;22.57;;;;;;;10.56;42.00;99766.22;4131871;28;20320;-67
2022/03/25 04:07:55;;;;;;;33.37;22.30;;;;;;;10.49;41.90;99772.34;4139953;28;20262;-67
2022/03/25 04:09:57;;;;;;;36.57;23.50;;;;;;;10.49;41.90;99772.34;4141394;28;20296;-66
2022/03/25 04:11:59;;;;;;;32.93;21.43;;;;;;;10.05;42.65;99770.56;4140617;28;20264;-66
2022/03/25 04:14:00;;;;;;;36.10;22.00;;;;;;;10.00;42.59;99773.69;4139538;28;20730;-67
2022/03/25 04:16:03;;;;;;;32.10;21.23;;;;;;;10.19;42.61;99770.00;4135114;28;20235;-66
2022/03/25 04:18:05;;;;;;;35.03;21.83;;;;;;;10.21;42.74;99767.19;4135649;28;20702;-66
2022/03/25 04:20:08;;;;;;;38.07;21.33;;;;;;;8.72;46.00;99772.88;4136108;28;20253;-66
2022/03/25 04:22:10;;;;;;;35.80;21.60;;;;;;;7.47;49.56;99747.31;4139557;28;20229;-66
2022/03/25 04:24:11;;;;;;;35.80;21.40;;;;;;;6.95;51.50;99740.56;4136984;28;20328;-66
2022/03/25 04:26:13;;;;;;;36.73;22.97;;;;;;;7.55;49.71;99729.94;4143807;28;20329;-67
2022/03/25 04:28:15;;;;;;;32.27;20.43;;;;;;;8.77;47.00;99706.16;4139474;28;20267;-66
2022/03/25 04:30:22;;;;;;;32.20;20.53;;;;;;;9.71;43.96;99709.41;4143962;28;20486;-66
2022/03/25 04:32:24;;;;;;;34.43;20.87;;;;;;;10.13;42.94;99724.66;4136089;28;20312;-66
2022/03/25 04:34:25;;;;;;;33.53;21.57;;;;;;;10.36;42.18;99731.09;4139528;28;20265;-67
2022/03/25 04:36:27;;;;;;;30.10;20.13;;;;;;;10.33;42.40;99722.56;4133427;28;20234;-71
2022/03/25 04:38:29;;;;;;;34.57;20.87;;;;;;;10.52;41.84;99727.66;4138695;28;20272;-70
2022/03/25 04:40:31;;;;;;;33.20;21.30;;;;;;;10.23;42.47;99728.84;4136828;28;20229;-70
2022/03/25 04:42:33;;;;;;;32.10;20.87;;;;;;;10.38;42.27;99733.56;4136267;28;20740;-71
2022/03/25 04:44:35;;;;;;;32.63;20.50;;;;;;;10.64;41.66;99722.91;4141214;28;20911;-69
2022/03/25 04:46:36;;;;;;;33.33;20.47;;;;;;;10.41;41.93;99733.25;4136229;28;20249;-73
2022/03/25 04:48:38;;;;;;;32.47;19.97;;;;;;;10.20;42.23;99736.31;4135803;28;20780;-70
2022/03/25 04:50:40;;;;;;;29.87;20.10;;;;;;;10.10;42.84;99736.41;4139380;28;20867;-70
2022/03/25 04:52:42;;;;;;;30.97;19.87;;;;;;;10.01;42.61;99740.84;4135914;28;20261;-71
2022/03/25 04:54:49;;;;;;;31.37;20.20;;;;;;;9.94;42.70;99741.59;4133939;28;20718;-66
2022/03/25 04:56:50;;;;;;;32.37;20.77;;;;;;;10.07;42.61;99757.97;4138448;28;20326;-67
2022/03/25 04:58:52;;;;;;;34.87;20.97;;;;;;;10.21;42.34;99749.44;4137160;28;20258;-66
2022/03/25 05:00:54;;;;;;;33.80;22.87;;;;;;;9.95;42.54;99753.91;4136262;28;20237;-66
2022/03/25 05:02:56;;;;;;;33.57;22.00;;;;;;;9.77;42.74;99756.56;4135019;28;20666;-66
2022/03/25 05:04:58;;;;;;;35.23;21.67;;;;;;;9.75;42.84;99764.69;4133578;28;20246;-67
2022/03/25 05:07:00;;;;;;;34.83;20.17;;;;;;;9.61;42.89;99767.91;4139194;28;20853;-66
2022/03/25 05:09:02;;;;;;;30.30;19.60;;;;;;;9.69;42.97;99760.84;4136830;28;20250;-66
2022/03/25 05:11:03;;;;;;;36.30;19.73;;;;;;;9.56;43.09;99763.00;4132198;28;20276;-66
2022/03/25 05:13:05;;;;;;;30.50;20.23;;;;;;;9.33;43.44;99767.91;4137676;28;20421;-66
2022/03/25 05:15:08;;;;;;;31.00;19.93;;;;;;;9.88;42.57;99759.00;4140766;28;20252;-66
2022/03/25 05:17:10;;;;;;;29.43;19.17;;;;;;;9.60;43.00;99771.53;4139673;28;20676;-66
2022/03/25 05:19:12;;;;;;;31.40;19.90;;;;;;;9.70;43.19;99774.94;4143532;28;20233;-66
2022/03/25 05:21:13;;;;;;;29.60;19.80;;;;;;;8.77;44.90;99770.63;4134157;28;20320;-66
2022/03/25 05:23:15;;;;;;;28.90;20.13;;;;;;;8.89;44.84;99760.66;4136992;28;20257;-66
2022/03/25 05:25:19;;;;;;;31.93;21.27;;;;;;;9.45;44.05;99764.09;4136907;28;20317;-66
2022/03/25 05:27:20;;;;;;;31.53;19.47;;;;;;;9.43;44.21;99763.38;4138007;28;20328;-66
2022/03/25 05:29:22;;;;;;;33.60;19.93;;;;;;;8.17;46.77;99772.75;4142819;28;20260;-66
2022/03/25 05:31:24;;;;;;;28.73;20.07;;;;;;;8.19;47.11;99752.25;4143131;28;20261;-66
2022/03/25 05:33:26;;;;;;;32.87;19.70;;;;;;;7.79;47.97;99763.88;4137173;28;20233;-66
2022/03/25 05:35:29;;;;;;;31.87;20.37;;;;;;;8.38;47.30;99743.44;4128434;28;20324;-66
2022/03/25 05:37:30;;;;;;;33.10;20.77;;;;;;;9.10;45.60;99747.13;4138852;28;20268;-65
2022/03/25 05:39:32;;;;;;;32.17;20.53;;;;;;;8.76;46.34;99763.66;4138228;28;20233;-66
2022/03/25 05:41:34;;;;;;;32.83;20.17;;;;;;;9.07;45.92;99749.25;4139044;28;20263;-66
2022/03/25 05:43:40;;;;;;;36.50;20.27;;;;;;;8.55;46.93;99771.81;4132139;28;20308;-65
2022/03/25 05:45:42;;;;;;;32.47;21.47;;;;;;;7.45;49.52;99774.91;4136371;28;20321;-65
2022/03/25 05:47:44;;;;;;;36.60;21.90;;;;;;;8.77;46.30;99752.06;4138286;28;20233;-64
2022/03/25 05:49:46;;;;;;;32.17;21.50;;;;;;;9.38;44.89;99767.47;4137871;28;20638;-64
2022/03/25 05:51:47;;;;;;;35.00;21.73;;;;;;;9.95;43.78;99762.69;4138762;28;20280;-64
2022/03/25 05:53:49;;;;;;;32.17;21.43;;;;;;;9.66;44.39;99770.94;4139699;28;20236;-65
2022/03/25 05:55:51;;;;;;;32.83;22.33;;;;;;;9.72;43.81;99774.78;4136374;28;20822;-64
2022/03/25 05:57:52;;;;;;;34.10;21.77;;;;;;;9.42;44.14;99787.41;4139029;28;20276;-65
2022/03/25 05:59:57;;;;;;;33.33;21.37;;;;;;;9.04;44.68;99784.84;4137202;28;20371;-65
2022/03/25 06:02:02;;;;;;;35.10;22.27;;;;;;;9.24;44.63;99777.63;4137256;28;20230;-66
2022/03/25 06:04:04;;;;;;;30.53;21.10;;;;;;;9.40;44.28;99792.03;4134407;28;20623;-66
2022/03/25 06:06:06;;;;;;;33.40;21.60;;;;;;;9.47;43.96;99786.00;4131959;28;20252;-64
2022/03/25 06:08:10;;;;;;;33.27;21.63;;;;;;;9.34;44.46;99780.22;4137399;28;20236;-66
2022/03/25 06:10:13;;;;;;;33.63;21.60;;;;;;;9.31;44.55;99788.47;4141980;28;20256;-66
2022/03/25 06:12:15;;;;;;;33.73;21.70;;;;;;;9.03;44.98;99792.97;4136767;28;20297;-65
2022/03/25 06:14:17;;;;;;;33.97;20.80;;;;;;;9.36;44.26;99796.00;4137512;28;20253;-64
2022/03/25 06:16:19;;;;;;;33.60;22.17;;;;;;;9.31;44.36;99801.75;4142238;28;20327;-64
2022/03/25 06:18:21;;;;;;;32.67;20.87;;;;;;;9.46;44.60;99788.78;4138493;28;20242;-65
2022/03/25 06:20:23;;;;;;;32.40;20.63;;;;;;;9.12;45.48;99800.88;4141603;28;21876;-66
2022/03/25 06:22:25;;;;;;;29.83;19.30;;;;;;;9.58;44.25;99800.03;4138523;28;20615;-66
2022/03/25 06:24:26;;;;;;;30.63;20.47;;;;;;;9.69;44.26;99803.31;4140662;28;20766;-66
2022/03/25 06:26:28;;;;;;;31.07;20.70;;;;;;;9.21;44.71;99815.06;4141888;28;20267;-65
2022/03/25 06:28:31;;;;;;;32.53;20.37;;;;;;;9.24;44.99;99805.97;4135338;28;20655;-65
2022/03/25 06:30:35;;;;;;;31.27;20.63;;;;;;;9.36;44.96;99804.78;4134117;28;20260;-65
2022/03/25 06:32:37;;;;;;;30.80;20.27;;;;;;;9.13;45.39;99813.16;4136550;28;20240;-64
2022/03/25 06:34:38;;;;;;;34.00;19.53;;;;;;;9.40;44.99;99811.47;4131122;28;20277;-64
2022/03/25 06:36:40;;;;;;;31.57;18.97;;;;;;;9.39;45.21;99804.47;4134275;28;21033;-66
2022/03/25 06:38:42;;;;;;;28.77;20.63;;;;;;;9.39;45.22;99819.56;4129877;28;20245;-64
2022/03/25 06:40:44;;;;;;;30.47;20.17;;;;;;;9.57;45.07;99809.81;4143559;28;20224;-65
2022/03/25 06:42:49;;;;;;;28.40;19.83;;;;;;;9.27;45.52;99818.94;4138441;28;20815;-66
2022/03/25 06:44:51;;;;;;;31.20;22.00;;;;;;;9.49;44.89;99820.34;4132997;28;20272;-65
2022/03/25 06:46:53;;;;;;;30.20;21.37;;;;;;;9.80;44.56;99817.34;4132304;28;20260;-66
2022/03/25 06:48:54;;;;;;;32.93;21.83;;;;;;;9.27;45.25;99832.22;4133049;28;20316;-64
2022/03/25 06:50:57;;;;;;;33.77;22.63;;;;;;;9.73;44.52;99825.09;4133834;28;20262;-66
2022/03/25 06:53:01;;;;;;;33.93;22.83;;;;;;;9.58;45.05;99848.63;4131900;28;20656;-67
2022/03/25 06:55:06;;;;;;;34.00;23.80;;;;;;;9.45;45.90;99826.91;4119233;28;20272;-64
2022/03/25 06:57:09;;;;;;;34.57;23.33;;;;;;;9.11;46.29;99831.03;4137692;28;20264;-64
2022/03/25 06:59:10;;;;;;;35.27;23.57;;;;;;;9.26;46.22;99841.97;4141090;28;20722;-64
2022/03/25 07:01:14;;;;;;;37.77;24.63;;;;;;;9.23;46.49;99838.78;4140352;28;20242;-64
2022/03/25 07:03:18;;;;;;;37.40;23.57;;;;;;;8.80;46.90;99843.75;4130180;28;20225;-65
2022/03/25 07:05:21;;;;;;;33.80;23.67;;;;;;;9.37;46.23;99833.00;4131623;28;20237;-65
2022/03/25 07:07:26;;;;;;;36.03;25.03;;;;;;;9.54;45.99;99834.00;4136774;28;20352;-65
2022/03/25 07:09:29;;;;;;;39.53;24.73;;;;;;;9.11;46.77;99844.28;4141832;28;21022;-65
2022/03/25 07:11:31;;;;;;;37.97;24.70;;;;;;;9.21;46.82;99836.28;4126634;28;20261;-65
2022/03/25 07:13:33;;;;;;;36.03;24.03;;;;;;;9.50;45.93;99838.78;4134912;28;20257;-65
2022/03/25 07:15:34;;;;;;;33.97;23.90;;;;;;;9.21;46.84;99835.47;4130027;28;20268;-65
2022/03/25 07:17:37;;;;;;;40.97;24.53;;;;;;;9.43;46.51;99837.69;4133354;28;20260;-67
2022/03/25 07:19:38;;;;;;;35.63;23.63;;;;;;;9.10;47.21;99842.63;4141520;28;20224;-65
2022/03/25 07:21:40;;;;;;;38.03;23.73;;;;;;;8.93;47.56;99848.72;4141420;28;20263;-65
2022/03/25 07:23:42;;;;;;;39.50;23.63;;;;;;;9.12;47.31;99850.44;4121381;28;20256;-65
2022/03/25 07:25:45;;;;;;;34.83;22.30;;;;;;;9.50;46.86;99840.56;4124681;28;20258;-66
2022/03/25 07:27:47;;;;;;;37.43;22.83;;;;;;;9.63;47.04;99835.78;4125366;28;20333;-65
2022/03/25 07:29:49;;;;;;;36.37;23.10;;;;;;;9.24;48.11;99835.16;4122587;28;20236;-65
2022/03/25 07:31:51;;;;;;;35.03;21.77;;;;;;;8.88;49.46;99841.19;4123596;28;20270;-66
2022/03/25 07:33:52;;;;;;;31.97;23.13;;;;;;;9.72;47.58;99835.84;4139957;28;20241;-66
2022/03/25 07:35:55;;;;;;;42.43;23.13;;;;;;;9.48;47.72;99861.13;4123544;28;20796;-65
2022/03/25 07:37:57;;;;;;;36.10;23.33;;;;;;;9.91;47.07;99854.31;4140110;28;20253;-66
2022/03/25 07:39:59;;;;;;;35.43;22.83;;;;;;;10.06;47.01;99843.97;4143719;28;20229;-67
2022/03/25 07:42:00;;;;;;;35.83;23.37;;;;;;;10.51;46.03;99824.34;4137580;28;20272;-66
2022/03/25 07:44:02;;;;;;;33.97;23.60;;;;;;;10.62;46.23;99826.75;4130844;28;20737;-66
2022/03/25 07:46:05;;;;;;;34.00;22.60;;;;;;;10.72;46.23;99834.63;4127637;28;20256;-66
2022/03/25 07:48:07;;;;;;;37.60;24.07;;;;;;;10.63;45.88;99846.19;4144249;28;20257;-67
2022/03/25 07:50:12;;;;;;;34.97;24.53;;;;;;;10.44;46.60;99856.03;4128676;28;20241;-67
2022/03/25 07:52:16;;;;;;;37.70;24.20;;;;;;;10.17;46.83;99877.44;4140780;28;20257;-66
2022/03/25 07:54:18;;;;;;;35.83;23.97;;;;;;;10.34;47.39;99870.44;4139847;28;20256;-67
2022/03/25 07:56:20;;;;;;;33.60;23.67;;;;;;;10.66;46.32;99858.34;4144343;28;20259;-66
2022/03/25 07:58:23;;;;;;;34.23;23.33;;;;;;;10.24;46.81;99876.69;4139109;28;20265;-66
2022/03/25 08:00:24;;;;;;;38.00;24.33;;;;;;;10.77;45.06;99845.66;4138008;28;20248;-66
2022/03/25 08:02:26;;;;;;;35.33;23.33;;;;;;;10.45;46.38;99883.47;4133869;28;20255;-66
2022/03/25 08:04:28;;;;;;;39.03;23.57;;;;;;;10.55;46.46;99870.91;4139018;28;20225;-66
2022/03/25 08:06:30;;;;;;;35.40;23.23;;;;;;;11.26;45.16;99823.75;4134598;28;20233;-67
2022/03/25 08:08:32;;;;;;;35.60;23.00;;;;;;;10.87;45.50;99869.50;4131711;28;20332;-67
2022/03/25 08:10:34;;;;;;;34.93;23.00;;;;;;;11.36;45.18;99840.41;4136635;28;20233;-67
2022/03/25 08:12:36;;;;;;;40.23;25.17;;;;;;;11.38;44.85;99842.09;4137934;28;20244;-64
2022/03/25 08:14:38;;;;;;;37.87;23.93;;;;;;;11.23;45.65;99853.34;4141341;28;20228;-65
2022/03/25 08:16:42;;;;;;;36.07;24.47;;;;;;;11.06;45.19;99864.94;4133520;28;20715;-65
2022/03/25 08:18:44;;;;;;;35.37;24.20;;;;;;;11.39;45.13;99846.41;4119841;28;20233;-65
2022/03/25 08:20:47;;;;;;;32.97;23.13;;;;;;;11.18;45.46;99872.44;4139605;28;20257;-66
2022/03/25 08:22:49;;;;;;;39.43;24.57;;;;;;;11.18;45.74;99867.13;4138924;28;20260;-66
2022/03/25 08:29:30;;;;;;;37.97;24.57;;;;;;;11.67;45.17;99842.47;4142583;28;20348;-64
2022/03/25 08:31:34;;;;;;;37.77;24.07;;;;;;;11.61;45.66;99851.13;4138193;28;20229;-64
2022/03/25 08:33:36;;;;;;;34.00;23.97;;;;;;;11.97;44.26;99832.22;4139665;28;20272;-64
2022/03/25 08:35:39;;;;;;;38.27;23.83;;;;;;;11.88;44.25;99843.84;4132793;28;20299;-65
2022/03/25 08:37:40;;;;;;;37.20;24.30;;;;;;;12.38;43.84;99829.53;4141482;28;20308;-65
2022/03/25 08:39:42;;;;;;;33.83;24.07;;;;;;;12.21;45.12;99839.38;4130841;28;20249;-65
2022/03/25 08:41:44;;;;;;;36.90;24.33;;;;;;;11.72;44.27;99865.97;4135668;28;20319;-66
2022/03/25 08:43:47;;;;;;;38.70;24.80;;;;;;;12.61;43.22;99831.50;4130204;28;20253;-68
2022/03/25 08:45:49;;;;;;;37.07;23.70;;;;;;;11.94;45.23;99869.84;4138663;28;20349;-65
2022/03/25 08:47:51;;;;;;;39.20;24.60;;;;;;;12.38;44.20;99842.84;4138593;28;20741;-65
2022/03/25 08:49:52;;;;;;;37.87;24.43;;;;;;;12.74;42.75;99829.13;4142307;28;20265;-65
2022/03/25 08:51:54;;;;;;;35.90;24.27;;;;;;;12.29;44.09;99875.88;4139645;28;20236;-65
2022/03/25 08:53:57;;;;;;;39.30;23.97;;;;;;;11.88;44.15;99899.81;4132814;28;20283;-65
2022/03/25 08:55:59;;;;;;;32.13;22.77;;;;;;;12.62;44.00;99857.16;4136399;28;20268;-65
2022/03/25 08:58:01;;;;;;;36.90;23.43;;;;;;;12.38;44.63;99872.19;4139473;28;20674;-66
2022/03/25 09:00:06;;;;;;;36.27;23.30;;;;;;;12.55;42.92;99857.00;4137496;28;20256;-66
2022/03/25 09:02:09;;;;;;;35.00;22.90;;;;;;;12.88;43.26;99830.28;4130248;28;20655;-66
2022/03/25 09:04:10;;;;;;;35.33;23.83;;;;;;;12.71;43.85;99857.97;4126690;28;20226;-66
2022/03/25 09:06:12;;;;;;;35.00;23.13;;;;;;;12.40;43.99;99883.50;4135734;28;20742;-67
2022/03/25 09:08:15;;;;;;;37.57;24.30;;;;;;;13.27;43.22;99829.44;4139683;28;20263;-64
2022/03/25 09:10:17;;;;;;;34.93;24.27;;;;;;;13.61;42.75;99822.91;4138418;28;20261;-64
2022/03/25 09:12:19;;;;;;;37.53;24.40;;;;;;;13.87;41.15;99809.22;4138279;28;20230;-65
2022/03/25 09:14:20;;;;;;;36.53;25.00;;;;;;;13.60;41.41;99823.91;4143141;28;20257;-66
2022/03/25 09:16:22;;;;;;;34.10;24.17;;;;;;;13.71;41.14;99831.50;4137235;28;20260;-66
2022/03/25 09:18:24;;;;;;;34.47;23.83;;;;;;;13.44;43.14;99846.22;4131709;28;20643;-66
2022/03/25 09:20:25;;;;;;;38.47;25.13;;;;;;;13.55;41.53;99832.47;4137407;28;20252;-67
2022/03/25 09:22:27;;;;;;;38.23;25.13;;;;;;;13.55;41.71;99848.50;4138896;28;20336;-67
2022/03/25 09:24:28;;;;;;;40.03;24.17;;;;;;;13.78;41.34;99818.28;4142785;28;20714;-65
2022/03/25 09:26:30;;;;;;;34.53;24.50;;;;;;;14.05;41.60;99829.47;4141955;28;20312;-65
2022/03/25 09:28:32;;;;;;;41.63;26.30;;;;;;;13.68;40.32;99836.38;4139089;28;20757;-69